Canora, Canada
Current Conditions -  °F | °C
As of 3:00 PM on Thursday 20 Nov 2014 (Local Time) from CYQV Reporting Station
Broken Clouds Broken Clouds  
Wind Chill:   Ceiling: 18000
Heat Index: 18°   Visibility: 9mi
Dew Point:   Wind: 14mph
Humidity: 68%   Direction: 160°SSE
Pressure: 29.88"   Gusts: NA
Location:  51.63°N, 102.43°W
Report Text: CYQV 202100Z AUTO 16012KT 9SM FEW110 BKN180 M08/M13 A2988 RMK PRESFR SLP160
Loading
Personal Weather Stations






























Interactive Weather Map New forecast layout! Learn more

10-Day Weather Forecast

Advertisements
Track Severe Weather on mobile